Time;durP1;ratioP1;P1;durP2;ratioP2;P2;SDS_P1;SDS_P2;PMS_P1;PMS_P2;Temp;Humidity;BMP_temperature;BMP_pressure;BME280_temperature;BME280_humidity;BME280_pressure;Samples;Min_cycle;Max_cycle;Signal;HPM_P1;HPM_P2
2023/05/10 00:02:08;;;;;;;2.05;1.63;;;;;;;10.05;66.15;100298.94;6279925;28;20282;-71
2023/05/10 00:05:09;;;;;;;1.15;0.88;;;;;;;10.01;67.34;100294.81;6274177;28;20048;-73
2023/05/10 00:08:10;;;;;;;2.08;1.20;;;;;;;9.91;67.85;100296.25;6295063;28;20040;-72
2023/05/10 00:11:13;;;;;;;3.28;1.60;;;;;;;9.88;67.99;100297.25;6294659;28;20483;-72
2023/05/10 00:14:13;;;;;;;1.90;1.45;;;;;;;9.82;68.26;100291.50;6296221;28;20052;-71
2023/05/10 00:17:14;;;;;;;1.98;1.23;;;;;;;9.77;70.50;100289.16;6295171;28;20090;-71
2023/05/10 00:20:20;;;;;;;1.83;1.42;;;;;;;9.78;70.21;100290.84;6273250;28;20156;-72
2023/05/10 00:23:23;;;;;;;2.15;1.30;;;;;;;9.72;70.24;100285.13;6271317;28;20099;-72
2023/05/10 00:26:24;;;;;;;1.95;1.33;;;;;;;9.71;70.48;100279.06;6269703;28;20071;-72
2023/05/10 00:29:25;;;;;;;3.03;1.70;;;;;;;9.69;71.41;100283.53;6270862;28;20057;-73
2023/05/10 00:32:28;;;;;;;3.03;1.92;;;;;;;9.63;70.82;100283.84;6270099;28;20478;-73
2023/05/10 00:35:29;;;;;;;3.00;1.70;;;;;;;9.61;72.77;100290.91;6271093;28;20055;-72
2023/05/10 00:38:32;;;;;;;3.90;1.70;;;;;;;9.56;72.52;100285.94;6283718;28;20048;-73
2023/05/10 00:41:33;;;;;;;1.52;1.35;;;;;;;9.53;73.30;100282.66;6294669;28;20055;-72
2023/05/10 00:44:36;;;;;;;3.08;1.67;;;;;;;9.47;72.40;100283.81;6294347;28;20048;-72
2023/05/10 00:47:37;;;;;;;4.18;1.33;;;;;;;9.43;73.49;100275.34;6295200;28;20131;-73
2023/05/10 00:50:39;;;;;;;1.88;1.42;;;;;;;9.40;74.95;100285.06;6294344;28;20607;-72
2023/05/10 00:53:40;;;;;;;2.85;1.25;;;;;;;9.33;74.91;100288.91;6293973;28;20048;-73
2023/05/10 00:56:41;;;;;;;1.77;1.55;;;;;;;9.27;76.11;100285.72;6293837;28;20098;-72
2023/05/10 00:59:42;;;;;;;2.10;1.52;;;;;;;9.32;74.99;100295.03;6293808;28;20131;-73
2023/05/10 01:02:45;;;;;;;2.33;1.45;;;;;;;9.21;76.21;100286.03;6293704;28;20406;-72
2023/05/10 01:05:49;;;;;;;3.53;1.73;;;;;;;9.20;76.77;100286.94;6290826;28;20052;-72
2023/05/10 01:08:50;;;;;;;2.50;1.67;;;;;;;9.21;77.20;100293.84;6292608;28;20518;-72
2023/05/10 01:11:51;;;;;;;1.77;1.33;;;;;;;9.12;76.44;100280.44;6294455;28;20049;-73
2023/05/10 01:14:52;;;;;;;2.63;1.50;;;;;;;8.95;79.01;100289.13;6283840;28;20106;-73
2023/05/10 01:17:53;;;;;;;4.27;1.40;;;;;;;8.88;79.01;100288.59;6269935;28;20060;-73
2023/05/10 01:21:10;;;;;;;1.77;1.20;;;;;;;8.86;79.35;100287.81;6267901;28;20459;-71
2023/05/10 01:24:35;;;;;;;2.08;1.23;;;;;;;8.85;79.58;100283.53;6268447;28;20076;-73
2023/05/10 01:27:51;;;;;;;2.42;1.63;;;;;;;8.80;80.07;100282.94;6268103;28;20090;-71
2023/05/10 01:31:11;;;;;;;3.25;1.65;;;;;;;8.82;80.48;100281.94;6267562;28;20057;-72
2023/05/10 01:34:32;;;;;;;1.25;1.02;;;;;;;8.86;80.97;100282.63;6279827;28;20087;-72
2023/05/10 01:37:45;;;;;;;3.60;1.83;;;;;;;8.94;80.32;100288.28;6287901;28;20445;-73
2023/05/10 01:41:17;;;;;;;1.52;1.25;;;;;;;8.92;81.05;100284.91;6258687;28;20049;-71
2023/05/10 01:44:34;;;;;;;2.50;1.92;;;;;;;8.84;81.45;100279.25;6243728;28;20124;-72
2023/05/10 01:47:54;;;;;;;2.72;1.60;;;;;;;8.86;83.12;100277.41;6244037;28;20527;-73
2023/05/10 01:50:56;;;;;;;3.15;1.23;;;;;;;8.82;81.64;100284.53;6286700;28;20253;-73
2023/05/10 01:54:01;;;;;;;;;;;;;;;8.83;83.19;100277.56;6271303;28;20044;-73
2023/05/10 01:57:05;;;;;;;2.20;1.38;;;;;;;8.78;82.24;100283.00;6268751;28;19936;-73
2023/05/10 02:00:09;;;;;;;1.88;1.25;;;;;;;8.79;84.58;100276.03;6263262;28;20095;-72
2023/05/10 02:03:11;;;;;;;6.80;1.67;;;;;;;8.80;84.56;100275.13;6274984;28;20429;-72
2023/05/10 02:06:16;;;;;;;2.55;1.55;;;;;;;8.74;84.95;100270.22;6279012;28;20053;-72
2023/05/10 02:09:18;;;;;;;2.50;1.55;;;;;;;8.72;85.75;100259.88;6270683;28;20045;-72
2023/05/10 02:12:20;;;;;;;1.73;1.40;;;;;;;8.76;86.14;100273.59;6286371;28;20480;-73
2023/05/10 02:15:23;;;;;;;2.10;1.67;;;;;;;8.77;86.21;100273.53;6268201;28;20067;-73
2023/05/10 02:18:26;;;;;;;2.05;1.65;;;;;;;8.68;86.32;100271.38;6242380;28;20605;-72
2023/05/10 02:21:31;;;;;;;1.88;1.45;;;;;;;8.66;87.30;100268.84;6281218;28;20064;-73
2023/05/10 02:24:34;;;;;;;2.35;1.50;;;;;;;8.66;86.96;100268.00;6270076;28;20065;-73
2023/05/10 02:27:37;;;;;;;2.40;1.60;;;;;;;8.60;86.28;100268.31;6267944;28;20079;-72
2023/05/10 02:30:37;;;;;;;;;;;;;;;8.62;86.87;100271.66;6266333;28;20281;-72
2023/05/10 02:33:40;;;;;;;1.20;1.08;;;;;;;8.57;88.28;100260.66;6285031;28;20271;-73
2023/05/10 02:36:42;;;;;;;1.83;1.42;;;;;;;8.55;89.42;100265.09;6273616;28;20352;-71
2023/05/10 02:39:45;;;;;;;2.97;1.27;;;;;;;8.52;89.18;100268.66;6269435;28;20072;-72
2023/05/10 02:42:47;;;;;;;;;;;;;;;8.44;89.41;100269.06;6277147;28;20407;-72
2023/05/10 02:45:48;;;;;;;5.82;1.48;;;;;;;8.42;89.37;100272.63;6274322;28;20156;-71
2023/05/10 02:48:49;;;;;;;1.95;1.60;;;;;;;8.37;89.83;100261.59;6273174;28;20056;-72
2023/05/10 02:51:58;;;;;;;1.65;1.55;;;;;;;8.33;89.03;100270.47;6296358;28;20050;-73
2023/05/10 02:55:02;;;;;;;3.13;1.80;;;;;;;8.27;90.02;100266.38;6284171;28;20109;-71
2023/05/10 02:58:04;;;;;;;2.35;1.75;;;;;;;8.20;89.95;100262.41;6295382;28;20040;-71
2023/05/10 03:01:04;;;;;;;2.17;1.45;;;;;;;8.13;89.41;100266.22;6291023;28;20403;-73
2023/05/10 03:04:06;;;;;;;2.88;1.80;;;;;;;8.07;89.81;100267.31;6288285;28;20052;-73
2023/05/10 03:07:07;;;;;;;3.03;2.10;;;;;;;8.05;90.74;100269.16;6271485;28;20059;-73
2023/05/10 03:10:09;;;;;;;2.87;2.00;;;;;;;8.03;92.09;100271.84;6272736;28;20045;-72
2023/05/10 03:13:17;;;;;;;2.88;1.42;;;;;;;8.04;92.70;100263.13;6287409;28;20044;-72
2023/05/10 03:16:29;;;;;;;1.42;1.27;;;;;;;8.06;93.46;100270.84;6283494;28;20079;-73
2023/05/10 03:19:36;;;;;;;3.10;1.95;;;;;;;8.07;93.28;100268.19;6292890;28;20045;-73
2023/05/10 03:22:50;;;;;;;2.47;1.55;;;;;;;8.14;92.82;100271.34;6273273;28;20049;-73
2023/05/10 03:25:51;;;;;;;3.22;1.90;;;;;;;8.09;94.76;100265.50;6279227;28;20051;-73
2023/05/10 03:28:54;;;;;;;1.88;1.50;;;;;;;8.05;94.21;100262.22;6267758;28;20088;-73
2023/05/10 03:31:55;;;;;;;;;;;;;;;8.07;95.22;100264.72;6266603;28;20059;-71
2023/05/10 03:34:58;;;;;;;2.50;1.58;;;;;;;8.05;95.80;100263.97;6289790;28;20110;-72
2023/05/10 03:37:58;;;;;;;2.03;1.50;;;;;;;8.08;96.65;100261.22;6295720;28;20552;-72
2023/05/10 03:40:59;;;;;;;2.28;1.40;;;;;;;8.09;96.59;100265.50;6296121;28;20143;-72
2023/05/10 03:44:00;;;;;;;2.45;1.70;;;;;;;8.18;97.53;100274.66;6296055;28;20052;-73
2023/05/10 03:47:01;;;;;;;3.42;1.70;;;;;;;8.20;98.81;100275.41;6295593;28;20055;-72
2023/05/10 03:50:02;;;;;;;4.13;1.52;;;;;;;8.19;98.59;100268.50;6296737;28;20045;-73
2023/05/10 03:53:03;;;;;;;2.13;1.20;;;;;;;8.15;97.33;100278.19;6296615;28;20054;-72
2023/05/10 03:56:04;;;;;;;1.90;1.50;;;;;;;8.16;96.24;100273.88;6295603;28;20546;-72
2023/05/10 03:59:07;;;;;;;1.75;1.60;;;;;;;8.21;95.70;100275.31;6296478;28;20040;-72
2023/05/10 04:02:10;;;;;;;4.82;1.83;;;;;;;8.22;95.99;100278.78;6296660;28;20255;-73
2023/05/10 04:05:12;;;;;;;2.15;1.52;;;;;;;8.26;95.54;100264.72;6294335;28;20055;-71
2023/05/10 04:08:14;;;;;;;4.00;1.70;;;;;;;8.35;95.80;100269.47;6290401;28;20048;-72
2023/05/10 04:11:15;;;;;;;;;;;;;;;8.37;94.92;100272.00;6295529;28;20060;-72
2023/05/10 04:14:16;;;;;;;3.80;1.80;;;;;;;8.40;94.44;100277.03;6295136;28;19928;-70
2023/05/10 04:17:17;;;;;;;1.80;1.60;;;;;;;8.40;94.17;100274.44;6273974;28;20435;-72
2023/05/10 04:20:18;;;;;;;5.70;1.45;;;;;;;8.37;95.03;100269.41;6270467;28;20053;-72
2023/05/10 04:23:18;;;;;;;2.45;1.50;;;;;;;8.47;95.46;100274.09;6271354;28;20057;-73
2023/05/10 04:26:22;;;;;;;2.17;1.50;;;;;;;8.54;96.27;100272.03;6292908;28;20048;-72
2023/05/10 04:29:22;;;;;;;1.75;1.48;;;;;;;8.57;96.72;100271.06;6295497;28;20055;-72
2023/05/10 04:32:23;;;;;;;2.38;1.30;;;;;;;8.72;97.14;100272.91;6274449;28;20052;-72
2023/05/10 04:35:27;;;;;;;2.50;1.77;;;;;;;8.83;97.35;100269.75;6268455;28;20110;-71
2023/05/10 04:38:28;;;;;;;1.95;1.45;;;;;;;8.98;99.46;100265.56;6269434;28;20052;-73
2023/05/10 04:41:29;;;;;;;2.63;1.85;;;;;;;9.12;99.76;100272.63;6268214;28;20060;-73
2023/05/10 04:44:30;;;;;;;7.57;1.75;;;;;;;9.21;97.34;100267.81;6269150;28;20053;-73
2023/05/10 04:47:31;;;;;;;4.03;1.77;;;;;;;9.27;96.90;100267.47;6270682;28;20509;-73
2023/05/10 04:50:34;;;;;;;15.07;2.03;;;;;;;9.34;96.17;100272.38;6269372;28;20048;-71
2023/05/10 04:53:35;;;;;;;1.75;1.20;;;;;;;9.36;96.71;100267.94;6270730;28;20415;-72
2023/05/10 04:56:35;;;;;;;2.45;1.60;;;;;;;9.47;96.71;100270.78;6260407;28;20052;-73
2023/05/10 04:59:37;;;;;;;1.92;1.48;;;;;;;9.50;96.82;100273.25;6274285;28;20510;-73
2023/05/10 05:02:38;;;;;;;2.47;1.70;;;;;;;9.54;95.63;100268.72;6288902;28;20127;-72
2023/05/10 05:05:38;;;;;;;7.00;2.22;;;;;;;9.53;95.10;100277.44;6286619;28;20052;-71
2023/05/10 05:08:39;;;;;;;3.13;1.77;;;;;;;9.66;94.06;100263.69;6291363;28;20049;-72
2023/05/10 05:11:40;;;;;;;2.58;1.90;;;;;;;9.81;93.90;100280.25;6290241;28;20071;-72
2023/05/10 05:14:41;;;;;;;2.13;1.75;;;;;;;9.93;93.06;100275.31;6296418;28;20052;-72
2023/05/10 05:17:44;;;;;;;2.10;1.42;;;;;;;10.14;91.64;100288.94;6292737;28;20117;-72
2023/05/10 05:20:47;;;;;;;11.02;2.00;;;;;;;10.37;90.35;100274.63;6274293;28;20092;-72
2023/05/10 05:23:48;;;;;;;3.00;1.70;;;;;;;10.44;88.87;100275.97;6272234;28;20052;-72
2023/05/10 05:26:48;;;;;;;2.75;1.80;;;;;;;10.52;86.90;100285.94;6275087;28;20053;-72
2023/05/10 05:29:54;;;;;;;4.03;1.98;;;;;;;10.68;85.86;100284.16;6269622;28;20406;-72
2023/05/10 05:32:57;;;;;;;3.05;1.75;;;;;;;10.76;85.57;100284.53;6269671;28;20539;-72
2023/05/10 05:36:00;;;;;;;1.88;1.60;;;;;;;10.81;84.51;100282.53;6271396;28;20051;-71
2023/05/10 05:39:01;;;;;;;2.15;1.70;;;;;;;10.86;81.33;100284.84;6282054;28;20442;-71
2023/05/10 05:42:02;;;;;;;1.75;1.40;;;;;;;10.98;79.22;100278.91;6262123;28;20063;-70
2023/05/10 05:45:03;;;;;;;3.10;1.30;;;;;;;11.03;79.41;100287.28;6274274;28;20055;-72
2023/05/10 05:48:04;;;;;;;3.50;1.88;;;;;;;11.16;77.94;100282.22;6252714;28;20050;-72
2023/05/10 05:51:05;;;;;;;1.73;1.50;;;;;;;11.46;77.90;100286.50;6261440;28;20122;-71
2023/05/10 05:54:06;;;;;;;3.10;1.45;;;;;;;11.66;76.35;100282.69;6284412;28;20048;-73
2023/05/10 05:57:07;;;;;;;2.40;1.48;;;;;;;11.80;76.71;100280.03;6287131;28;20101;-72
2023/05/10 06:00:08;;;;;;;1.52;1.35;;;;;;;12.01;74.48;100290.94;6281271;28;20048;-72
2023/05/10 06:03:09;;;;;;;1.95;1.70;;;;;;;12.09;72.88;100288.69;6284276;28;20053;-72
2023/05/10 06:06:10;;;;;;;2.53;1.55;;;;;;;12.19;70.08;100288.09;6281401;28;20052;-71
2023/05/10 06:09:11;;;;;;;1.90;1.55;;;;;;;12.28;70.43;100284.91;6294249;28;20052;-72
2023/05/10 06:12:12;;;;;;;2.75;1.50;;;;;;;12.52;71.45;100290.34;6280690;28;20087;-74
2023/05/10 06:15:12;;;;;;;1.95;1.45;;;;;;;12.75;70.48;100295.84;6274439;28;20048;-72
2023/05/10 06:18:13;;;;;;;2.42;1.48;;;;;;;12.59;69.54;100296.00;6280121;28;20044;-72
2023/05/10 06:21:15;;;;;;;1.95;1.23;;;;;;;12.48;69.76;100289.69;6286029;28;20633;-72
2023/05/10 06:24:16;;;;;;;3.85;1.83;;;;;;;12.46;67.13;100296.78;6277374;28;20063;-72
2023/05/10 06:27:17;;;;;;;3.97;1.58;;;;;;;12.68;67.99;100298.84;6294006;28;20434;-71
2023/05/10 06:30:18;;;;;;;3.45;1.83;;;;;;;12.58;67.78;100296.91;6293292;28;20041;-72
2023/05/10 06:33:18;;;;;;;8.38;1.35;;;;;;;12.57;66.89;100298.69;6274526;28;20060;-72
2023/05/10 06:36:19;;;;;;;2.20;1.40;;;;;;;12.40;66.82;100297.19;6285486;28;20481;-72
2023/05/10 06:39:22;;;;;;;1.77;1.48;;;;;;;12.45;66.30;100300.34;6288602;28;20074;-71
2023/05/10 06:42:25;;;;;;;1.73;1.60;;;;;;;12.51;67.95;100304.34;6285870;28;20139;-72
2023/05/10 06:45:26;;;;;;;1.60;1.40;;;;;;;12.65;65.89;100306.06;6299765;28;20053;-73
2023/05/10 06:48:26;;;;;;;4.20;1.75;;;;;;;12.95;65.74;100304.97;6292587;28;20193;-71
2023/05/10 06:51:48;;;;;;;4.32;1.83;;;;;;;12.95;65.72;100297.97;6276858;28;20049;-72
2023/05/10 06:55:09;;;;;;;2.90;1.48;;;;;;;13.60;63.65;100301.44;6272387;28;20075;-73
2023/05/10 06:58:10;;;;;;;2.07;1.60;;;;;;;13.76;64.01;100295.97;6273247;28;20051;-72
2023/05/10 07:01:11;;;;;;;2.90;1.77;;;;;;;14.43;63.26;100306.88;6273310;28;20053;-73
2023/05/10 07:04:12;;;;;;;2.78;1.80;;;;;;;14.83;59.16;100303.94;6289825;28;20051;-73
2023/05/10 07:07:14;;;;;;;1.75;1.50;;;;;;;15.27;58.19;100301.53;6290326;28;20052;-72
2023/05/10 07:10:15;;;;;;;2.65;1.30;;;;;;;15.53;58.22;100307.41;6324800;28;20049;-72
2023/05/10 07:13:16;;;;;;;8.90;2.10;;;;;;;15.81;57.03;100306.09;6293088;28;20056;-74
2023/05/10 07:16:16;;;;;;;2.67;1.42;;;;;;;16.17;56.89;100300.69;6276212;28;20049;-73
2023/05/10 07:19:18;;;;;;;3.25;1.80;;;;;;;16.10;55.39;100302.94;6285782;28;20162;-73
2023/05/10 07:22:21;;;;;;;1.42;1.33;;;;;;;16.24;55.50;100301.84;6291914;28;20106;-74
2023/05/10 07:25:22;;;;;;;1.52;1.42;;;;;;;16.20;53.99;100298.63;6271548;28;20052;-73
2023/05/10 07:28:26;;;;;;;10.07;1.38;;;;;;;16.62;54.61;100308.44;6272297;28;20092;-74
2023/05/10 07:31:27;;;;;;;3.17;1.67;;;;;;;16.64;53.07;100306.50;6271389;28;20053;-72
2023/05/10 07:34:29;;;;;;;3.88;1.60;;;;;;;16.50;54.97;100305.00;6275172;28;20047;-72
2023/05/10 07:37:30;;;;;;;3.28;1.45;;;;;;;16.09;52.08;100298.66;6275562;28;20441;-72
2023/05/10 07:40:33;;;;;;;3.15;1.60;;;;;;;16.24;52.59;100301.84;6293901;28;20064;-72
2023/05/10 07:43:34;;;;;;;5.90;1.42;;;;;;;16.16;51.99;100296.34;6297288;28;20479;-73
2023/05/10 07:46:35;;;;;;;3.10;1.50;;;;;;;16.62;53.04;100290.00;6297274;28;20135;-71
2023/05/10 07:49:36;;;;;;;2.08;1.58;;;;;;;16.75;50.90;100297.72;6285413;28;20048;-73
2023/05/10 07:52:36;;;;;;;2.63;1.60;;;;;;;16.97;49.89;100299.44;6284754;28;20487;-73
2023/05/10 07:55:37;;;;;;;4.80;2.03;;;;;;;16.96;50.90;100297.75;6293742;28;20055;-73
2023/05/10 07:58:38;;;;;;;2.65;1.80;;;;;;;16.67;50.44;100304.44;6286258;28;20065;-73
2023/05/10 08:01:38;;;;;;;2.53;1.63;;;;;;;17.22;49.91;100303.47;6278872;28;20049;-73
2023/05/10 08:04:41;;;;;;;1.90;1.38;;;;;;;16.51;50.33;100299.63;6277276;28;20068;-73
2023/05/10 08:07:42;;;;;;;1.40;1.30;;;;;;;17.03;51.41;100301.56;6298036;28;20052;-73
2023/05/10 08:10:43;;;;;;;1.70;1.30;;;;;;;17.40;52.43;100293.13;6274571;28;20049;-73
2023/05/10 08:13:45;;;;;;;2.00;1.38;;;;;;;17.95;50.11;100298.06;6273123;28;20056;-73
2023/05/10 08:16:47;;;;;;;1.40;1.30;;;;;;;18.34;48.39;100296.34;6273067;28;20052;-73
2023/05/10 08:19:47;;;;;;;;;;;;;;;18.00;47.27;100296.72;6273460;28;20060;-72
2023/05/10 08:22:49;;;;;;;1.70;1.40;;;;;;;17.44;49.09;100298.03;6271296;28;20105;-73
2023/05/10 08:25:50;;;;;;;3.97;1.50;;;;;;;17.29;48.65;100315.13;6271579;28;20056;-73
2023/05/10 08:28:50;;;;;;;1.45;1.30;;;;;;;17.40;51.84;100308.94;6270356;28;20136;-74
2023/05/10 08:31:51;;;;;;;1.92;1.60;;;;;;;17.30;48.68;100308.91;6270129;28;20052;-74
2023/05/10 08:34:52;;;;;;;2.35;1.50;;;;;;;17.35;49.46;100308.53;6271423;28;20052;-73
2023/05/10 08:37:53;;;;;;;1.20;1.00;;;;;;;17.79;49.87;100304.69;6272036;28;20071;-73
2023/05/10 08:40:58;;;;;;;3.25;1.55;;;;;;;17.77;47.53;100303.13;6271440;28;20083;-74
2023/05/10 08:44:03;;;;;;;1.75;1.30;;;;;;;18.26;46.11;100301.47;6272241;28;20103;-73
2023/05/10 08:47:06;;;;;;;1.48;1.00;;;;;;;18.01;47.11;100308.94;6270795;28;20152;-73
2023/05/10 08:50:08;;;;;;;8.32;1.55;;;;;;;18.86;47.35;100296.06;6267191;28;20391;-74
2023/05/10 08:53:13;;;;;;;1.98;1.00;;;;;;;19.81;47.20;100304.84;6271488;28;20059;-71
2023/05/10 08:56:15;;;;;;;2.75;0.93;;;;;;;19.50;44.02;100297.19;6270337;28;20187;-72
2023/05/10 08:59:16;;;;;;;1.17;0.90;;;;;;;19.07;41.51;100301.19;6270514;28;20052;-71
2023/05/10 09:02:19;;;;;;;1.27;0.82;;;;;;;19.46;40.19;100301.91;6269980;28;20410;-72
2023/05/10 09:05:19;;;;;;;1.02;0.80;;;;;;;19.73;42.41;100303.78;6270500;28;20055;-73
2023/05/10 09:08:20;;;;;;;2.08;1.15;;;;;;;19.63;42.01;100297.66;6271685;28;20052;-73
2023/05/10 09:11:21;;;;;;;1.50;0.88;;;;;;;20.18;42.25;100301.28;6271379;28;20045;-72
2023/05/10 09:14:24;;;;;;;1.53;0.73;;;;;;;20.71;41.85;100304.00;6271629;28;20062;-72
2023/05/10 09:17:27;;;;;;;1.15;1.00;;;;;;;20.53;40.87;100296.00;6270262;28;20783;-72
2023/05/10 09:20:28;;;;;;;3.03;1.10;;;;;;;20.45;42.51;100298.59;6271085;28;20052;-72
2023/05/10 09:23:32;;;;;;;1.20;1.00;;;;;;;20.72;40.89;100303.00;6275254;28;20044;-73
2023/05/10 09:26:33;;;;;;;2.05;1.00;;;;;;;20.85;42.72;100289.31;6282824;28;20049;-72
2023/05/10 09:29:42;;;;;;;1.77;0.90;;;;;;;21.05;39.77;100291.81;6270634;28;20459;-72
2023/05/10 09:32:47;;;;;;;1.13;1.00;;;;;;;21.18;41.65;100291.38;6270758;28;20274;-72
2023/05/10 09:35:52;;;;;;;2.08;1.20;;;;;;;21.25;39.36;100287.09;6269579;28;20076;-73
2023/05/10 09:38:52;;;;;;;0.88;0.70;;;;;;;20.97;39.23;100281.13;6271049;28;20103;-72
2023/05/10 09:41:56;;;;;;;1.20;0.77;;;;;;;20.86;38.10;100283.06;6281232;28;20049;-72
2023/05/10 09:45:02;;;;;;;1.48;0.90;;;;;;;20.52;40.28;100277.59;6294138;28;20048;-72
2023/05/10 09:48:05;;;;;;;0.98;0.90;;;;;;;20.67;38.23;100276.13;6293181;28;20048;-72
2023/05/10 09:51:06;;;;;;;2.13;1.17;;;;;;;20.04;37.45;100262.94;6290601;28;20090;-72
2023/05/10 09:54:16;;;;;;;1.27;0.80;;;;;;;20.14;38.63;100261.03;6284927;28;20117;-72
2023/05/10 09:57:25;;;;;;;1.30;1.00;;;;;;;20.55;39.52;100261.41;6269359;28;20487;-72
2023/05/10 10:00:27;;;;;;;2.22;1.10;;;;;;;21.40;37.32;100259.00;6270471;28;20384;-72
2023/05/10 10:03:29;;;;;;;;;;;;;;;22.05;39.34;100261.06;6269931;28;20088;-71
2023/05/10 10:06:34;;;;;;;;;;;;;;;22.17;35.66;100260.75;6269959;28;19959;-71
2023/05/10 10:09:35;;;;;;;0.80;0.80;;;;;;;22.24;34.65;100252.00;6269954;28;19968;-71
2023/05/10 10:12:36;;;;;;;1.27;0.97;;;;;;;21.98;35.07;100243.28;6268247;28;20051;-71
2023/05/10 10:15:40;;;;;;;1.38;0.88;;;;;;;21.81;40.52;100242.44;6268354;28;20045;-72
2023/05/10 10:18:42;;;;;;;2.15;0.80;;;;;;;21.32;37.29;100243.03;6270512;28;20049;-71
2023/05/10 10:21:42;;;;;;;0.88;0.70;;;;;;;21.84;35.40;100240.25;6270437;28;20122;-72
2023/05/10 10:24:44;;;;;;;1.20;1.00;;;;;;;21.56;32.58;100225.56;6270352;28;20435;-72
2023/05/10 10:27:54;;;;;;;1.02;0.70;;;;;;;21.03;35.20;100238.06;6273968;28;20072;-71
2023/05/10 10:30:59;;;;;;;2.20;1.10;;;;;;;20.74;37.55;100236.56;6289631;28;20395;-71
2023/05/10 10:34:06;;;;;;;1.05;0.95;;;;;;;21.36;37.98;100223.16;6293730;28;20189;-72
2023/05/10 10:37:07;;;;;;;1.00;0.80;;;;;;;21.68;32.53;100224.28;6293879;28;20052;-72
2023/05/10 10:40:23;;;;;;;1.93;1.10;;;;;;;21.27;36.64;100224.94;6294051;28;20048;-72
2023/05/10 10:43:26;;;;;;;1.90;1.02;;;;;;;21.40;35.34;100216.53;6294562;28;20071;-71
2023/05/10 10:46:27;;;;;;;2.47;1.85;;;;;;;21.50;35.62;100206.66;6293809;28;20480;-71
2023/05/10 10:49:31;;;;;;;2.73;1.67;;;;;;;20.92;35.86;100192.25;6293524;28;20059;-71
2023/05/10 10:52:43;;;;;;;3.45;1.60;;;;;;;20.60;37.50;100197.34;6293754;28;20099;-71
2023/05/10 10:55:48;;;;;;;2.35;1.15;;;;;;;21.87;32.44;100188.66;6297302;28;20053;-72
2023/05/10 10:58:53;;;;;;;2.63;1.23;;;;;;;23.02;34.95;100196.59;6298183;28;20055;-72
2023/05/10 11:01:54;;;;;;;3.25;1.10;;;;;;;23.17;31.30;100188.75;6297977;28;20147;-71
2023/05/10 11:04:54;;;;;;;1.00;0.80;;;;;;;22.44;31.99;100194.00;6299338;28;20084;-71
2023/05/10 11:07:57;;;;;;;0.80;0.77;;;;;;;21.65;33.12;100192.75;6298025;28;20052;-72
2023/05/10 11:11:03;;;;;;;2.05;0.85;;;;;;;22.23;33.26;100191.00;6297926;28;20052;-72
2023/05/10 11:14:05;;;;;;;1.50;0.68;;;;;;;21.44;33.08;100186.06;6299190;28;20059;-71
2023/05/10 11:17:27;;;;;;;1.33;0.90;;;;;;;21.10;34.55;100184.22;6299406;28;20477;-71
2023/05/10 11:20:38;;;;;;;0.75;0.70;;;;;;;20.66;32.44;100181.66;6297891;28;20068;-71
2023/05/10 11:23:39;;;;;;;6.50;0.90;;;;;;;21.73;30.77;100176.84;6297399;28;20063;-72
2023/05/10 11:26:40;;;;;;;2.00;0.90;;;;;;;22.04;34.62;100186.84;6298303;28;20049;-71
2023/05/10 11:29:43;;;;;;;1.13;0.77;;;;;;;21.64;35.57;100176.00;6297297;28;20174;-71
2023/05/10 11:32:44;;;;;;;1.20;0.93;;;;;;;21.21;33.77;100176.97;6298308;28;20055;-71
2023/05/10 11:35:46;;;;;;;1.10;0.85;;;;;;;20.74;32.95;100188.84;6296802;28;20445;-71
2023/05/10 11:38:48;;;;;;;1.10;0.90;;;;;;;20.61;32.90;100183.97;6297274;28;20075;-71
2023/05/10 11:41:49;;;;;;;0.90;0.60;;;;;;;22.10;34.41;100171.06;6298464;28;20092;-72
2023/05/10 11:44:50;;;;;;;3.90;0.70;;;;;;;22.38;32.83;100172.56;6296913;28;20075;-71
2023/05/10 11:47:51;;;;;;;0.70;0.60;;;;;;;22.35;33.54;100176.41;6297289;28;20479;-72
2023/05/10 11:50:52;;;;;;;0.80;0.70;;;;;;;23.27;34.13;100171.56;6297172;28;20056;-71
2023/05/10 11:53:55;;;;;;;1.23;0.63;;;;;;;22.80;30.48;100172.34;6297995;28;20056;-71
2023/05/10 11:56:56;;;;;;;0.90;0.60;;;;;;;23.48;31.16;100170.94;6296211;28;20502;-71
2023/05/10 11:59:57;;;;;;;1.33;1.00;;;;;;;22.23;31.10;100156.44;6297324;28;20051;-73
2023/05/10 12:03:01;;;;;;;1.58;1.13;;;;;;;21.43;31.26;100162.31;6298326;28;20049;-72
2023/05/10 12:06:02;;;;;;;1.17;0.80;;;;;;;21.14;33.71;100159.03;6295679;28;20055;-71
2023/05/10 12:09:07;;;;;;;1.25;0.82;;;;;;;21.25;33.55;100159.72;6284011;28;20044;-71
2023/05/10 12:12:08;;;;;;;1.85;1.00;;;;;;;20.96;31.52;100149.50;6296584;28;20051;-70
2023/05/10 12:15:23;;;;;;;0.90;0.70;;;;;;;20.90;30.51;100154.47;6296218;28;20083;-72
2023/05/10 12:18:26;;;;;;;0.88;0.60;;;;;;;21.16;32.58;100152.75;6296412;28;20541;-72
2023/05/10 12:21:30;;;;;;;1.40;0.82;;;;;;;21.63;31.53;100149.59;6296685;28;20093;-72
2023/05/10 12:24:34;;;;;;;1.48;0.90;;;;;;;21.75;30.97;100142.97;6296092;28;20382;-71
2023/05/10 12:27:35;;;;;;;0.70;0.70;;;;;;;21.95;30.81;100140.84;6296018;28;20060;-72
2023/05/10 12:30:37;;;;;;;0.53;0.50;;;;;;;22.28;31.76;100130.25;6297462;28;20419;-73
2023/05/10 12:33:42;;;;;;;1.17;0.75;;;;;;;22.25;31.21;100139.38;6296157;28;20058;-73
2023/05/10 12:36:43;;;;;;;1.52;0.77;;;;;;;21.74;33.87;100138.66;6297664;28;20083;-73
2023/05/10 12:39:45;;;;;;;1.10;1.00;;;;;;;21.59;33.38;100133.16;6297086;28;20045;-73
2023/05/10 12:42:46;;;;;;;4.10;0.70;;;;;;;21.25;32.31;100133.19;6297004;28;20122;-73
2023/05/10 12:45:48;;;;;;;0.83;0.60;;;;;;;20.54;32.34;100137.81;6295943;28;20466;-72
2023/05/10 12:48:54;;;;;;;0.68;0.68;;;;;;;20.76;32.88;100119.75;6296074;28;20055;-73
2023/05/10 12:51:55;;;;;;;0.60;0.57;;;;;;;20.58;30.95;100127.72;6297001;28;20048;-73
2023/05/10 12:54:56;;;;;;;1.23;0.70;;;;;;;20.82;32.40;100125.25;6295870;28;20055;-72
2023/05/10 12:57:57;;;;;;;7.03;0.70;;;;;;;20.75;32.74;100126.03;6296033;28;20517;-73
2023/05/10 13:00:58;;;;;;;1.48;0.90;;;;;;;20.73;32.74;100116.44;6295709;28;20052;-72
2023/05/10 13:04:00;;;;;;;0.82;0.60;;;;;;;20.72;33.59;100114.75;6297037;28;20056;-72
2023/05/10 13:07:03;;;;;;;1.20;0.70;;;;;;;20.37;31.72;100107.72;6296777;28;20060;-72
2023/05/10 13:10:05;;;;;;;0.73;0.70;;;;;;;20.67;33.23;100108.25;6295540;28;20051;-71
2023/05/10 13:13:07;;;;;;;1.30;0.60;;;;;;;20.67;33.11;100108.25;6295257;28;20491;-71
2023/05/10 13:16:08;;;;;;;1.00;0.80;;;;;;;20.69;31.06;100108.94;6294939;28;20051;-71
2023/05/10 13:19:08;;;;;;;0.70;0.70;;;;;;;20.86;33.27;100102.72;6264452;28;20053;-71
2023/05/10 13:22:09;;;;;;;0.63;0.60;;;;;;;20.77;32.77;100101.00;6246804;28;20061;-71
2023/05/10 13:25:10;;;;;;;0.70;0.60;;;;;;;20.81;30.80;100104.19;6246819;28;20065;-72
2023/05/10 13:28:11;;;;;;;1.50;0.73;;;;;;;21.09;32.40;100097.66;6244903;28;20061;-72
2023/05/10 13:31:12;;;;;;;0.43;0.43;;;;;;;21.27;30.20;100088.75;6278287;28;20132;-71
2023/05/10 13:34:13;;;;;;;1.30;0.70;;;;;;;21.30;29.16;100086.63;6277490;28;20053;-71
2023/05/10 13:37:13;;;;;;;1.97;0.73;;;;;;;22.12;30.54;100089.34;6278078;28;20049;-73
2023/05/10 13:40:15;;;;;;;0.50;0.50;;;;;;;21.85;28.13;100084.41;6278338;28;20045;-72
2023/05/10 13:43:16;;;;;;;0.85;0.82;;;;;;;21.76;30.23;100078.25;6246329;28;20076;-73
2023/05/10 13:46:17;;;;;;;0.67;0.67;;;;;;;21.30;30.90;100083.97;6245775;28;20133;-72
2023/05/10 13:49:17;;;;;;;2.07;0.70;;;;;;;20.81;30.87;100073.19;6296392;28;20127;-72
2023/05/10 13:52:18;;;;;;;0.80;0.60;;;;;;;20.77;33.19;100081.63;6286035;28;20372;-72
2023/05/10 13:55:19;;;;;;;0.50;0.50;;;;;;;20.81;33.52;100078.50;6280573;28;20080;-71
2023/05/10 13:58:20;;;;;;;1.33;0.50;;;;;;;21.06;33.82;100073.28;6266496;28;20506;-72
2023/05/10 14:01:21;;;;;;;0.67;0.60;;;;;;;21.43;31.44;100061.47;6270610;28;20053;-72
2023/05/10 14:04:21;;;;;;;2.33;0.70;;;;;;;21.97;32.20;100066.28;6267684;28;20400;-72
2023/05/10 14:07:22;;;;;;;0.60;0.50;;;;;;;22.02;29.59;100064.78;6269043;28;20505;-73
2023/05/10 14:10:23;;;;;;;0.60;0.60;;;;;;;21.93;30.74;100053.34;6270408;28;20040;-73
2023/05/10 14:13:24;;;;;;;0.40;0.40;;;;;;;21.89;30.21;100052.03;6269184;28;20182;-73
2023/05/10 14:16:26;;;;;;;1.58;0.63;;;;;;;21.86;29.09;100055.00;6268765;28;20651;-73